sensor_id;sensor_type;location;lat;lon;timestamp;P1;durP1;ratioP1;P2;durP2;ratioP2
10661;SDS011;5379;51.034;7.006;2024-01-07T00:01:45;13.73;;;11.87;;
10661;SDS011;5379;51.034;7.006;2024-01-07T00:04:14;18.43;;;13.17;;
10661;SDS011;5379;51.034;7.006;2024-01-07T00:06:41;13.87;;;11.87;;
10661;SDS011;5379;51.034;7.006;2024-01-07T00:09:08;16.43;;;12.97;;
10661;SDS011;5379;51.034;7.006;2024-01-07T00:11:35;13.57;;;12.20;;
10661;SDS011;5379;51.034;7.006;2024-01-07T00:14:02;13.10;;;11.67;;
10661;SDS011;5379;51.034;7.006;2024-01-07T00:16:29;13.07;;;11.63;;
10661;SDS011;5379;51.034;7.006;2024-01-07T00:18:56;13.40;;;12.10;;
10661;SDS011;5379;51.034;7.006;2024-01-07T00:21:25;12.97;;;10.77;;
10661;SDS011;5379;51.034;7.006;2024-01-07T00:23:51;11.80;;;10.53;;
10661;SDS011;5379;51.034;7.006;2024-01-07T00:26:18;11.60;;;10.03;;
10661;SDS011;5379;51.034;7.006;2024-01-07T00:28:45;17.93;;;10.93;;
10661;SDS011;5379;51.034;7.006;2024-01-07T00:31:13;13.40;;;11.47;;
10661;SDS011;5379;51.034;7.006;2024-01-07T00:33:40;10.67;;;9.67;;
10661;SDS011;5379;51.034;7.006;2024-01-07T00:36:07;11.07;;;9.97;;
10661;SDS011;5379;51.034;7.006;2024-01-07T00:38:35;11.47;;;10.07;;
10661;SDS011;5379;51.034;7.006;2024-01-07T00:41:02;11.47;;;10.37;;
10661;SDS011;5379;51.034;7.006;2024-01-07T00:43:30;11.43;;;9.87;;
10661;SDS011;5379;51.034;7.006;2024-01-07T00:45:57;9.73;;;8.83;;
10661;SDS011;5379;51.034;7.006;2024-01-07T00:48:24;10.43;;;8.70;;
10661;SDS011;5379;51.034;7.006;2024-01-07T00:50:51;8.37;;;7.67;;
10661;SDS011;5379;51.034;7.006;2024-01-07T00:53:18;10.77;;;9.30;;
10661;SDS011;5379;51.034;7.006;2024-01-07T00:55:46;9.27;;;8.40;;
10661;SDS011;5379;51.034;7.006;2024-01-07T00:58:13;9.33;;;7.43;;
10661;SDS011;5379;51.034;7.006;2024-01-07T05:30:25;12.27;;;10.63;;
10661;SDS011;5379;51.034;7.006;2024-01-07T05:32:52;10.60;;;9.60;;
10661;SDS011;5379;51.034;7.006;2024-01-07T05:35:19;11.07;;;9.93;;
10661;SDS011;5379;51.034;7.006;2024-01-07T05:37:47;13.00;;;10.33;;
10661;SDS011;5379;51.034;7.006;2024-01-07T05:40:14;10.53;;;9.20;;
10661;SDS011;5379;51.034;7.006;2024-01-07T05:42:41;13.07;;;10.90;;
10661;SDS011;5379;51.034;7.006;2024-01-07T05:45:08;12.20;;;10.87;;
10661;SDS011;5379;51.034;7.006;2024-01-07T05:47:37;11.90;;;10.63;;
10661;SDS011;5379;51.034;7.006;2024-01-07T05:50:05;12.27;;;10.73;;
10661;SDS011;5379;51.034;7.006;2024-01-07T05:52:34;18.47;;;12.00;;
10661;SDS011;5379;51.034;7.006;2024-01-07T05:55:00;11.63;;;10.07;;
10661;SDS011;5379;51.034;7.006;2024-01-07T05:57:28;13.10;;;9.60;;
10661;SDS011;5379;51.034;7.006;2024-01-07T05:59:54;13.30;;;9.37;;
10661;SDS011;5379;51.034;7.006;2024-01-07T06:02:21;10.20;;;8.37;;
10661;SDS011;5379;51.034;7.006;2024-01-07T06:04:50;9.63;;;8.73;;
10661;SDS011;5379;51.034;7.006;2024-01-07T06:07:17;10.60;;;9.37;;
10661;SDS011;5379;51.034;7.006;2024-01-07T06:09:44;9.10;;;8.27;;
10661;SDS011;5379;51.034;7.006;2024-01-07T06:12:11;11.13;;;9.93;;
10661;SDS011;5379;51.034;7.006;2024-01-07T06:14:37;10.70;;;9.70;;
10661;SDS011;5379;51.034;7.006;2024-01-07T06:17:04;10.77;;;9.77;;
10661;SDS011;5379;51.034;7.006;2024-01-07T06:19:31;10.23;;;9.13;;
10661;SDS011;5379;51.034;7.006;2024-01-07T06:21:59;12.40;;;11.10;;
10661;SDS011;5379;51.034;7.006;2024-01-07T06:24:26;13.90;;;9.57;;
10661;SDS011;5379;51.034;7.006;2024-01-07T06:26:53;9.87;;;8.87;;
10661;SDS011;5379;51.034;7.006;2024-01-07T06:29:20;8.90;;;8.17;;
10661;SDS011;5379;51.034;7.006;2024-01-07T06:31:46;13.47;;;10.57;;
10661;SDS011;5379;51.034;7.006;2024-01-07T06:34:13;11.97;;;9.73;;
10661;SDS011;5379;51.034;7.006;2024-01-07T06:36:40;10.23;;;9.33;;
10661;SDS011;5379;51.034;7.006;2024-01-07T06:39:09;12.17;;;10.57;;
10661;SDS011;5379;51.034;7.006;2024-01-07T06:41:35;11.37;;;10.17;;
10661;SDS011;5379;51.034;7.006;2024-01-07T06:44:02;11.57;;;10.33;;
10661;SDS011;5379;51.034;7.006;2024-01-07T06:46:29;12.03;;;9.83;;
10661;SDS011;5379;51.034;7.006;2024-01-07T06:48:56;10.67;;;9.07;;
10661;SDS011;5379;51.034;7.006;2024-01-07T06:51:23;10.23;;;9.03;;
10661;SDS011;5379;51.034;7.006;2024-01-07T06:53:50;8.63;;;7.73;;
10661;SDS011;5379;51.034;7.006;2024-01-07T06:56:18;8.87;;;7.97;;
10661;SDS011;5379;51.034;7.006;2024-01-07T06:58:45;8.30;;;7.60;;
10661;SDS011;5379;51.034;7.006;2024-01-07T07:01:12;7.70;;;7.00;;
10661;SDS011;5379;51.034;7.006;2024-01-07T07:03:39;6.80;;;6.20;;
10661;SDS011;5379;51.034;7.006;2024-01-07T07:06:07;8.37;;;7.53;;
10661;SDS011;5379;51.034;7.006;2024-01-07T07:08:33;7.20;;;6.53;;
10661;SDS011;5379;51.034;7.006;2024-01-07T07:11:00;7.60;;;6.80;;
10661;SDS011;5379;51.034;7.006;2024-01-07T07:13:28;10.07;;;9.07;;
10661;SDS011;5379;51.034;7.006;2024-01-07T07:15:55;7.37;;;6.67;;
10661;SDS011;5379;51.034;7.006;2024-01-07T07:18:22;9.03;;;7.43;;
10661;SDS011;5379;51.034;7.006;2024-01-07T07:20:49;7.10;;;6.50;;
10661;SDS011;5379;51.034;7.006;2024-01-07T07:23:16;11.37;;;7.47;;
10661;SDS011;5379;51.034;7.006;2024-01-07T07:25:43;7.50;;;6.90;;
10661;SDS011;5379;51.034;7.006;2024-01-07T07:28:11;7.37;;;6.33;;
10661;SDS011;5379;51.034;7.006;2024-01-07T07:30:39;8.13;;;7.00;;
10661;SDS011;5379;51.034;7.006;2024-01-07T07:33:06;8.17;;;7.37;;
10661;SDS011;5379;51.034;7.006;2024-01-07T07:35:32;8.90;;;8.10;;
10661;SDS011;5379;51.034;7.006;2024-01-07T07:37:59;8.10;;;7.13;;
10661;SDS011;5379;51.034;7.006;2024-01-07T07:40:26;7.87;;;7.07;;
10661;SDS011;5379;51.034;7.006;2024-01-07T07:42:52;8.50;;;7.63;;
10661;SDS011;5379;51.034;7.006;2024-01-07T07:45:19;8.83;;;7.50;;
10661;SDS011;5379;51.034;7.006;2024-01-07T07:47:47;9.23;;;8.17;;
10661;SDS011;5379;51.034;7.006;2024-01-07T07:50:14;12.27;;;8.53;;
10661;SDS011;5379;51.034;7.006;2024-01-07T07:52:41;9.53;;;8.60;;
10661;SDS011;5379;51.034;7.006;2024-01-07T07:55:08;7.70;;;7.00;;
10661;SDS011;5379;51.034;7.006;2024-01-07T07:57:35;7.13;;;6.53;;
10661;SDS011;5379;51.034;7.006;2024-01-07T08:00:03;8.97;;;7.83;;
10661;SDS011;5379;51.034;7.006;2024-01-07T08:02:31;8.77;;;7.90;;
10661;SDS011;5379;51.034;7.006;2024-01-07T08:04:59;11.10;;;9.23;;
10661;SDS011;5379;51.034;7.006;2024-01-07T08:07:26;9.43;;;7.37;;
10661;SDS011;5379;51.034;7.006;2024-01-07T08:09:53;9.00;;;8.17;;
10661;SDS011;5379;51.034;7.006;2024-01-07T08:12:22;8.17;;;7.47;;
10661;SDS011;5379;51.034;7.006;2024-01-07T08:14:48;17.00;;;8.30;;
10661;SDS011;5379;51.034;7.006;2024-01-07T08:17:15;8.57;;;7.20;;
10661;SDS011;5379;51.034;7.006;2024-01-07T08:19:42;7.87;;;7.10;;
10661;SDS011;5379;51.034;7.006;2024-01-07T08:22:11;8.23;;;7.33;;
10661;SDS011;5379;51.034;7.006;2024-01-07T08:24:37;8.23;;;7.43;;
10661;SDS011;5379;51.034;7.006;2024-01-07T08:27:04;9.93;;;8.93;;
10661;SDS011;5379;51.034;7.006;2024-01-07T08:29:31;9.30;;;8.37;;
10661;SDS011;5379;51.034;7.006;2024-01-07T08:31:58;9.90;;;8.13;;
10661;SDS011;5379;51.034;7.006;2024-01-07T08:34:26;9.90;;;8.60;;
10661;SDS011;5379;51.034;7.006;2024-01-07T08:36:52;9.67;;;8.70;;
10661;SDS011;5379;51.034;7.006;2024-01-07T08:39:21;10.13;;;8.97;;
10661;SDS011;5379;51.034;7.006;2024-01-07T08:41:48;9.03;;;8.13;;
10661;SDS011;5379;51.034;7.006;2024-01-07T08:44:14;9.97;;;8.97;;
10661;SDS011;5379;51.034;7.006;2024-01-07T08:46:42;11.53;;;8.10;;
10661;SDS011;5379;51.034;7.006;2024-01-07T08:49:10;11.90;;;9.97;;
10661;SDS011;5379;51.034;7.006;2024-01-07T08:51:38;9.73;;;8.80;;
10661;SDS011;5379;51.034;7.006;2024-01-07T08:54:05;14.00;;;10.27;;
10661;SDS011;5379;51.034;7.006;2024-01-07T08:56:33;12.00;;;9.80;;
10661;SDS011;5379;51.034;7.006;2024-01-07T08:59:00;10.80;;;9.30;;
10661;SDS011;5379;51.034;7.006;2024-01-07T09:01:27;11.83;;;9.73;;
10661;SDS011;5379;51.034;7.006;2024-01-07T09:03:54;8.37;;;7.63;;
10661;SDS011;5379;51.034;7.006;2024-01-07T09:06:20;13.40;;;9.30;;
10661;SDS011;5379;51.034;7.006;2024-01-07T09:08:47;9.63;;;8.60;;
10661;SDS011;5379;51.034;7.006;2024-01-07T09:11:14;9.83;;;7.80;;
10661;SDS011;5379;51.034;7.006;2024-01-07T09:13:42;10.10;;;9.00;;
10661;SDS011;5379;51.034;7.006;2024-01-07T09:16:09;9.83;;;8.77;;
10661;SDS011;5379;51.034;7.006;2024-01-07T09:18:36;8.87;;;7.83;;
10661;SDS011;5379;51.034;7.006;2024-01-07T09:21:03;11.80;;;8.87;;
10661;SDS011;5379;51.034;7.006;2024-01-07T09:23:31;7.70;;;7.00;;
10661;SDS011;5379;51.034;7.006;2024-01-07T09:25:58;10.77;;;8.33;;
10661;SDS011;5379;51.034;7.006;2024-01-07T09:28:25;9.20;;;7.73;;
10661;SDS011;5379;51.034;7.006;2024-01-07T09:30:53;8.40;;;7.60;;
10661;SDS011;5379;51.034;7.006;2024-01-07T09:33:20;7.50;;;6.70;;
10661;SDS011;5379;51.034;7.006;2024-01-07T09:35:48;6.47;;;5.87;;
10661;SDS011;5379;51.034;7.006;2024-01-07T09:38:15;7.00;;;6.27;;
10661;SDS011;5379;51.034;7.006;2024-01-07T09:40:42;6.37;;;5.80;;
10661;SDS011;5379;51.034;7.006;2024-01-07T09:43:09;6.23;;;5.63;;
10661;SDS011;5379;51.034;7.006;2024-01-07T09:45:36;6.07;;;5.53;;
10661;SDS011;5379;51.034;7.006;2024-01-07T09:48:06;5.90;;;5.30;;
10661;SDS011;5379;51.034;7.006;2024-01-07T09:50:33;5.70;;;5.20;;
10661;SDS011;5379;51.034;7.006;2024-01-07T09:52:59;5.53;;;4.80;;
10661;SDS011;5379;51.034;7.006;2024-01-07T09:55:30;4.73;;;4.40;;
10661;SDS011;5379;51.034;7.006;2024-01-07T09:57:59;5.43;;;4.93;;
10661;SDS011;5379;51.034;7.006;2024-01-07T10:00:26;3.57;;;3.37;;
10661;SDS011;5379;51.034;7.006;2024-01-07T10:02:54;4.67;;;4.27;;
10661;SDS011;5379;51.034;7.006;2024-01-07T10:05:22;5.60;;;4.97;;
10661;SDS011;5379;51.034;7.006;2024-01-07T10:07:49;4.93;;;4.53;;
10661;SDS011;5379;51.034;7.006;2024-01-07T10:10:19;4.47;;;4.03;;
10661;SDS011;5379;51.034;7.006;2024-01-07T10:12:46;4.93;;;4.43;;
10661;SDS011;5379;51.034;7.006;2024-01-07T10:15:13;5.40;;;5.00;;
10661;SDS011;5379;51.034;7.006;2024-01-07T10:17:41;5.60;;;4.97;;
10661;SDS011;5379;51.034;7.006;2024-01-07T10:20:08;6.23;;;5.67;;
10661;SDS011;5379;51.034;7.006;2024-01-07T10:22:37;5.80;;;5.03;;
10661;SDS011;5379;51.034;7.006;2024-01-07T10:25:04;7.83;;;6.03;;
10661;SDS011;5379;51.034;7.006;2024-01-07T10:27:33;4.73;;;4.33;;
10661;SDS011;5379;51.034;7.006;2024-01-07T10:30:01;7.03;;;6.37;;
10661;SDS011;5379;51.034;7.006;2024-01-07T10:32:28;8.03;;;7.23;;
10661;SDS011;5379;51.034;7.006;2024-01-07T10:34:56;8.80;;;7.33;;
10661;SDS011;5379;51.034;7.006;2024-01-07T10:37:28;8.40;;;7.53;;
10661;SDS011;5379;51.034;7.006;2024-01-07T10:39:58;9.73;;;5.23;;
10661;SDS011;5379;51.034;7.006;2024-01-07T10:42:29;11.37;;;7.67;;
10661;SDS011;5379;51.034;7.006;2024-01-07T10:44:58;7.73;;;7.03;;
10661;SDS011;5379;51.034;7.006;2024-01-07T10:47:25;7.47;;;6.47;;
10661;SDS011;5379;51.034;7.006;2024-01-07T10:49:56;7.50;;;6.77;;
10661;SDS011;5379;51.034;7.006;2024-01-07T10:52:24;7.90;;;7.20;;
10661;SDS011;5379;51.034;7.006;2024-01-07T10:54:53;9.87;;;8.23;;
10661;SDS011;5379;51.034;7.006;2024-01-07T10:57:24;9.40;;;7.55;;
10661;SDS011;5379;51.034;7.006;2024-01-07T10:59:58;8.43;;;7.57;;
10661;SDS011;5379;51.034;7.006;2024-01-07T11:02:26;10.23;;;7.17;;
10661;SDS011;5379;51.034;7.006;2024-01-07T11:04:54;9.83;;;7.90;;
10661;SDS011;5379;51.034;7.006;2024-01-07T11:07:32;10.57;;;7.17;;
10661;SDS011;5379;51.034;7.006;2024-01-07T11:10:04;7.50;;;6.73;;
10661;SDS011;5379;51.034;7.006;2024-01-07T11:12:36;9.60;;;6.93;;
10661;SDS011;5379;51.034;7.006;2024-01-07T11:15:03;6.53;;;6.00;;
10661;SDS011;5379;51.034;7.006;2024-01-07T11:17:39;7.00;;;6.40;;
10661;SDS011;5379;51.034;7.006;2024-01-07T11:20:12;9.93;;;7.03;;
10661;SDS011;5379;51.034;7.006;2024-01-07T11:22:43;10.93;;;6.90;;
10661;SDS011;5379;51.034;7.006;2024-01-07T11:28:05;7.07;;;6.47;;
10661;SDS011;5379;51.034;7.006;2024-01-07T11:30:37;6.77;;;6.10;;
10661;SDS011;5379;51.034;7.006;2024-01-07T11:33:06;10.03;;;7.67;;
10661;SDS011;5379;51.034;7.006;2024-01-07T11:38:22;7.40;;;6.40;;
10661;SDS011;5379;51.034;7.006;2024-01-07T11:40:49;7.13;;;6.43;;
10661;SDS011;5379;51.034;7.006;2024-01-07T11:43:18;7.43;;;6.70;;
10661;SDS011;5379;51.034;7.006;2024-01-07T11:45:45;9.67;;;6.90;;
10661;SDS011;5379;51.034;7.006;2024-01-07T11:48:12;7.37;;;6.67;;
10661;SDS011;5379;51.034;7.006;2024-01-07T11:50:39;7.33;;;6.63;;
10661;SDS011;5379;51.034;7.006;2024-01-07T11:53:06;6.17;;;5.70;;
10661;SDS011;5379;51.034;7.006;2024-01-07T11:55:33;6.33;;;5.70;;
10661;SDS011;5379;51.034;7.006;2024-01-07T11:58:01;6.77;;;6.07;;
10661;SDS011;5379;51.034;7.006;2024-01-07T12:00:31;9.03;;;6.73;;
10661;SDS011;5379;51.034;7.006;2024-01-07T12:02:58;8.70;;;5.87;;
10661;SDS011;5379;51.034;7.006;2024-01-07T12:05:25;5.63;;;5.13;;
10661;SDS011;5379;51.034;7.006;2024-01-07T12:07:52;13.20;;;6.30;;
10661;SDS011;5379;51.034;7.006;2024-01-07T12:10:20;5.03;;;4.60;;
10661;SDS011;5379;51.034;7.006;2024-01-07T12:12:47;6.87;;;6.17;;
10661;SDS011;5379;51.034;7.006;2024-01-07T12:15:14;4.37;;;4.13;;
10661;SDS011;5379;51.034;7.006;2024-01-07T12:17:42;5.50;;;5.10;;
10661;SDS011;5379;51.034;7.006;2024-01-07T12:20:21;8.37;;;5.80;;
10661;SDS011;5379;51.034;7.006;2024-01-07T12:22:48;7.53;;;5.70;;
10661;SDS011;5379;51.034;7.006;2024-01-07T12:25:20;6.53;;;5.93;;
10661;SDS011;5379;51.034;7.006;2024-01-07T12:27:47;8.90;;;4.80;;
10661;SDS011;5379;51.034;7.006;2024-01-07T12:30:17;6.23;;;5.73;;
10661;SDS011;5379;51.034;7.006;2024-01-07T12:32:46;7.80;;;5.70;;
10661;SDS011;5379;51.034;7.006;2024-01-07T12:35:13;7.47;;;5.53;;
10661;SDS011;5379;51.034;7.006;2024-01-07T12:37:40;7.60;;;6.10;;
10661;SDS011;5379;51.034;7.006;2024-01-07T12:40:08;6.63;;;5.40;;
10661;SDS011;5379;51.034;7.006;2024-01-07T12:42:36;8.30;;;5.77;;
10661;SDS011;5379;51.034;7.006;2024-01-07T12:45:05;4.87;;;4.47;;
10661;SDS011;5379;51.034;7.006;2024-01-07T12:47:34;12.70;;;7.67;;
10661;SDS011;5379;51.034;7.006;2024-01-07T12:50:01;7.50;;;5.20;;
10661;SDS011;5379;51.034;7.006;2024-01-07T12:52:28;4.43;;;4.13;;
10661;SDS011;5379;51.034;7.006;2024-01-07T12:54:55;5.60;;;5.10;;
10661;SDS011;5379;51.034;7.006;2024-01-07T12:57:23;6.60;;;4.67;;
10661;SDS011;5379;51.034;7.006;2024-01-07T12:59:49;10.63;;;5.70;;
10661;SDS011;5379;51.034;7.006;2024-01-07T13:02:16;3.90;;;3.60;;
10661;SDS011;5379;51.034;7.006;2024-01-07T13:04:43;3.93;;;3.63;;
10661;SDS011;5379;51.034;7.006;2024-01-07T13:07:12;4.90;;;4.10;;
10661;SDS011;5379;51.034;7.006;2024-01-07T13:09:39;4.57;;;3.97;;
10661;SDS011;5379;51.034;7.006;2024-01-07T13:12:06;3.60;;;3.30;;
10661;SDS011;5379;51.034;7.006;2024-01-07T13:14:33;6.03;;;3.43;;
10661;SDS011;5379;51.034;7.006;2024-01-07T13:17:00;3.20;;;2.97;;
10661;SDS011;5379;51.034;7.006;2024-01-07T13:19:26;5.23;;;3.30;;
10661;SDS011;5379;51.034;7.006;2024-01-07T13:21:53;3.77;;;3.47;;
10661;SDS011;5379;51.034;7.006;2024-01-07T13:24:24;4.13;;;3.73;;
10661;SDS011;5379;51.034;7.006;2024-01-07T13:26:51;4.20;;;3.80;;
10661;SDS011;5379;51.034;7.006;2024-01-07T13:29:18;4.33;;;3.93;;
10661;SDS011;5379;51.034;7.006;2024-01-07T13:31:44;4.20;;;3.90;;
10661;SDS011;5379;51.034;7.006;2024-01-07T13:34:11;3.97;;;3.43;;
10661;SDS011;5379;51.034;7.006;2024-01-07T13:36:39;3.90;;;3.60;;
10661;SDS011;5379;51.034;7.006;2024-01-07T13:39:07;3.80;;;3.50;;
10661;SDS011;5379;51.034;7.006;2024-01-07T13:41:35;4.17;;;3.77;;
10661;SDS011;5379;51.034;7.006;2024-01-07T13:44:02;4.67;;;4.17;;
10661;SDS011;5379;51.034;7.006;2024-01-07T13:46:29;3.40;;;3.10;;
10661;SDS011;5379;51.034;7.006;2024-01-07T13:48:56;4.47;;;3.30;;
10661;SDS011;5379;51.034;7.006;2024-01-07T13:51:23;5.90;;;4.63;;
10661;SDS011;5379;51.034;7.006;2024-01-07T13:53:50;4.00;;;3.53;;
10661;SDS011;5379;51.034;7.006;2024-01-07T13:56:18;4.57;;;4.17;;
10661;SDS011;5379;51.034;7.006;2024-01-07T13:58:46;5.17;;;4.30;;
10661;SDS011;5379;51.034;7.006;2024-01-07T14:01:15;7.20;;;4.20;;
10661;SDS011;5379;51.034;7.006;2024-01-07T14:03:42;6.20;;;3.40;;
10661;SDS011;5379;51.034;7.006;2024-01-07T14:06:08;3.50;;;2.90;;
10661;SDS011;5379;51.034;7.006;2024-01-07T14:08:36;2.70;;;2.50;;
10661;SDS011;5379;51.034;7.006;2024-01-07T14:11:03;2.23;;;2.13;;
10661;SDS011;5379;51.034;7.006;2024-01-07T14:13:32;3.53;;;3.20;;
10661;SDS011;5379;51.034;7.006;2024-01-07T14:16:00;3.40;;;3.20;;
10661;SDS011;5379;51.034;7.006;2024-01-07T14:18:27;3.23;;;3.03;;
10661;SDS011;5379;51.034;7.006;2024-01-07T14:20:54;4.20;;;2.53;;
10661;SDS011;5379;51.034;7.006;2024-01-07T14:23:21;1.90;;;1.80;;
10661;SDS011;5379;51.034;7.006;2024-01-07T14:25:48;2.30;;;2.20;;
10661;SDS011;5379;51.034;7.006;2024-01-07T14:28:14;2.33;;;2.00;;
10661;SDS011;5379;51.034;7.006;2024-01-07T14:30:41;2.50;;;2.30;;
10661;SDS011;5379;51.034;7.006;2024-01-07T14:33:09;3.53;;;1.80;;
10661;SDS011;5379;51.034;7.006;2024-01-07T14:35:36;1.77;;;1.67;;
10661;SDS011;5379;51.034;7.006;2024-01-07T14:38:03;2.00;;;1.90;;
10661;SDS011;5379;51.034;7.006;2024-01-07T14:40:30;3.00;;;2.37;;
10661;SDS011;5379;51.034;7.006;2024-01-07T14:42:56;2.00;;;1.90;;
10661;SDS011;5379;51.034;7.006;2024-01-07T14:45:24;1.83;;;1.73;;
10661;SDS011;5379;51.034;7.006;2024-01-07T14:47:51;1.50;;;1.40;;
10661;SDS011;5379;51.034;7.006;2024-01-07T14:50:19;2.40;;;2.20;;
10661;SDS011;5379;51.034;7.006;2024-01-07T14:52:46;3.17;;;2.43;;
10661;SDS011;5379;51.034;7.006;2024-01-07T14:55:14;0.57;;;0.57;;
10661;SDS011;5379;51.034;7.006;2024-01-07T14:57:41;1.80;;;1.70;;
10661;SDS011;5379;51.034;7.006;2024-01-07T15:00:08;3.17;;;2.20;;
10661;SDS011;5379;51.034;7.006;2024-01-07T15:02:35;2.37;;;2.17;;
10661;SDS011;5379;51.034;7.006;2024-01-07T15:05:02;2.33;;;2.17;;
10661;SDS011;5379;51.034;7.006;2024-01-07T15:07:31;3.53;;;2.40;;
10661;SDS011;5379;51.034;7.006;2024-01-07T15:09:58;2.20;;;2.00;;
10661;SDS011;5379;51.034;7.006;2024-01-07T15:12:24;2.47;;;2.27;;
10661;SDS011;5379;51.034;7.006;2024-01-07T15:15:00;2.47;;;2.33;;
10661;SDS011;5379;51.034;7.006;2024-01-07T15:17:28;2.77;;;2.57;;
10661;SDS011;5379;51.034;7.006;2024-01-07T15:19:55;6.97;;;2.07;;
10661;SDS011;5379;51.034;7.006;2024-01-07T15:22:22;2.10;;;2.00;;
10661;SDS011;5379;51.034;7.006;2024-01-07T15:24:50;2.83;;;2.63;;
10661;SDS011;5379;51.034;7.006;2024-01-07T15:27:17;1.90;;;1.80;;
10661;SDS011;5379;51.034;7.006;2024-01-07T15:29:44;2.43;;;2.13;;
10661;SDS011;5379;51.034;7.006;2024-01-07T15:32:11;2.27;;;2.17;;
10661;SDS011;5379;51.034;7.006;2024-01-07T15:34:38;3.43;;;3.13;;
10661;SDS011;5379;51.034;7.006;2024-01-07T15:37:06;2.70;;;2.50;;
10661;SDS011;5379;51.034;7.006;2024-01-07T15:39:33;1.90;;;1.80;;
10661;SDS011;5379;51.034;7.006;2024-01-07T15:42:01;2.47;;;2.27;;
10661;SDS011;5379;51.034;7.006;2024-01-07T15:44:28;4.00;;;2.33;;
10661;SDS011;5379;51.034;7.006;2024-01-07T15:46:56;5.50;;;3.00;;
10661;SDS011;5379;51.034;7.006;2024-01-07T15:49:23;4.90;;;2.50;;
10661;SDS011;5379;51.034;7.006;2024-01-07T15:51:50;2.43;;;2.23;;
10661;SDS011;5379;51.034;7.006;2024-01-07T15:54:17;5.73;;;3.17;;
10661;SDS011;5379;51.034;7.006;2024-01-07T15:56:44;3.70;;;2.80;;
10661;SDS011;5379;51.034;7.006;2024-01-07T15:59:12;2.20;;;2.10;;
10661;SDS011;5379;51.034;7.006;2024-01-07T16:01:45;2.63;;;2.27;;
10661;SDS011;5379;51.034;7.006;2024-01-07T16:04:12;2.43;;;2.23;;
10661;SDS011;5379;51.034;7.006;2024-01-07T16:06:40;2.67;;;2.47;;
10661;SDS011;5379;51.034;7.006;2024-01-07T16:09:08;11.17;;;2.77;;
10661;SDS011;5379;51.034;7.006;2024-01-07T16:11:39;2.80;;;2.60;;
10661;SDS011;5379;51.034;7.006;2024-01-07T16:14:06;2.53;;;2.33;;
10661;SDS011;5379;51.034;7.006;2024-01-07T16:16:35;1.00;;;1.00;;
10661;SDS011;5379;51.034;7.006;2024-01-07T16:19:06;2.83;;;2.20;;
10661;SDS011;5379;51.034;7.006;2024-01-07T16:21:34;4.37;;;2.57;;
10661;SDS011;5379;51.034;7.006;2024-01-07T16:24:00;2.17;;;2.07;;
10661;SDS011;5379;51.034;7.006;2024-01-07T16:26:28;1.67;;;1.60;;
10661;SDS011;5379;51.034;7.006;2024-01-07T16:28:54;1.80;;;1.70;;
10661;SDS011;5379;51.034;7.006;2024-01-07T16:31:21;3.63;;;2.53;;
10661;SDS011;5379;51.034;7.006;2024-01-07T16:33:49;2.13;;;2.03;;
10661;SDS011;5379;51.034;7.006;2024-01-07T16:36:16;2.00;;;1.90;;
10661;SDS011;5379;51.034;7.006;2024-01-07T16:38:43;3.03;;;1.63;;
10661;SDS011;5379;51.034;7.006;2024-01-07T16:41:10;2.90;;;2.30;;
10661;SDS011;5379;51.034;7.006;2024-01-07T16:43:38;3.10;;;2.23;;
10661;SDS011;5379;51.034;7.006;2024-01-07T16:46:05;1.77;;;1.67;;
10661;SDS011;5379;51.034;7.006;2024-01-07T16:48:32;1.70;;;1.60;;
10661;SDS011;5379;51.034;7.006;2024-01-07T16:51:00;1.67;;;1.60;;
10661;SDS011;5379;51.034;7.006;2024-01-07T16:53:27;3.80;;;1.93;;
10661;SDS011;5379;51.034;7.006;2024-01-07T16:55:55;1.47;;;1.47;;
10661;SDS011;5379;51.034;7.006;2024-01-07T16:58:22;1.17;;;1.17;;
10661;SDS011;5379;51.034;7.006;2024-01-07T17:00:49;1.87;;;1.77;;
10661;SDS011;5379;51.034;7.006;2024-01-07T17:03:17;9.23;;;1.30;;
10661;SDS011;5379;51.034;7.006;2024-01-07T17:05:45;2.50;;;2.23;;
10661;SDS011;5379;51.034;7.006;2024-01-07T17:08:14;1.13;;;1.13;;
10661;SDS011;5379;51.034;7.006;2024-01-07T17:10:41;1.50;;;1.40;;
10661;SDS011;5379;51.034;7.006;2024-01-07T17:13:08;1.10;;;1.10;;
10661;SDS011;5379;51.034;7.006;2024-01-07T17:15:35;1.97;;;1.53;;
10661;SDS011;5379;51.034;7.006;2024-01-07T17:18:03;1.53;;;1.43;;
10661;SDS011;5379;51.034;7.006;2024-01-07T17:20:30;1.03;;;1.03;;
10661;SDS011;5379;51.034;7.006;2024-01-07T17:22:58;2.43;;;1.90;;
10661;SDS011;5379;51.034;7.006;2024-01-07T17:25:27;1.10;;;1.10;;
10661;SDS011;5379;51.034;7.006;2024-01-07T17:27:54;1.10;;;1.10;;
10661;SDS011;5379;51.034;7.006;2024-01-07T17:30:21;1.27;;;1.27;;
10661;SDS011;5379;51.034;7.006;2024-01-07T17:32:51;2.53;;;1.87;;
10661;SDS011;5379;51.034;7.006;2024-01-07T17:35:18;0.70;;;0.70;;
10661;SDS011;5379;51.034;7.006;2024-01-07T17:37:45;2.40;;;2.00;;
10661;SDS011;5379;51.034;7.006;2024-01-07T17:40:13;1.93;;;1.80;;
10661;SDS011;5379;51.034;7.006;2024-01-07T17:42:41;2.50;;;2.30;;
10661;SDS011;5379;51.034;7.006;2024-01-07T17:45:08;4.50;;;1.93;;
10661;SDS011;5379;51.034;7.006;2024-01-07T17:47:37;1.23;;;1.23;;
10661;SDS011;5379;51.034;7.006;2024-01-07T17:50:04;0.80;;;0.80;;
10661;SDS011;5379;51.034;7.006;2024-01-07T17:52:32;1.00;;;1.00;;
10661;SDS011;5379;51.034;7.006;2024-01-07T17:54:59;0.70;;;0.70;;
10661;SDS011;5379;51.034;7.006;2024-01-07T17:57:27;0.63;;;0.63;;
10661;SDS011;5379;51.034;7.006;2024-01-07T17:59:56;1.30;;;1.20;;
10661;SDS011;5379;51.034;7.006;2024-01-07T18:02:26;1.73;;;1.63;;
10661;SDS011;5379;51.034;7.006;2024-01-07T18:04:53;1.40;;;1.30;;
10661;SDS011;5379;51.034;7.006;2024-01-07T18:07:20;0.80;;;0.80;;
10661;SDS011;5379;51.034;7.006;2024-01-07T18:09:47;1.40;;;1.10;;
10661;SDS011;5379;51.034;7.006;2024-01-07T18:12:15;1.20;;;1.13;;
10661;SDS011;5379;51.034;7.006;2024-01-07T18:14:42;1.40;;;1.40;;
10661;SDS011;5379;51.034;7.006;2024-01-07T18:17:11;0.90;;;0.90;;
10661;SDS011;5379;51.034;7.006;2024-01-07T18:19:38;1.33;;;1.30;;
10661;SDS011;5379;51.034;7.006;2024-01-07T18:22:05;0.90;;;0.90;;
10661;SDS011;5379;51.034;7.006;2024-01-07T18:24:32;1.13;;;1.13;;
10661;SDS011;5379;51.034;7.006;2024-01-07T18:26:59;2.47;;;1.10;;
10661;SDS011;5379;51.034;7.006;2024-01-07T18:29:26;2.50;;;1.60;;
10661;SDS011;5379;51.034;7.006;2024-01-07T18:31:54;1.83;;;1.73;;
10661;SDS011;5379;51.034;7.006;2024-01-07T18:34:22;1.10;;;1.10;;
10661;SDS011;5379;51.034;7.006;2024-01-07T18:36:49;1.73;;;1.63;;
10661;SDS011;5379;51.034;7.006;2024-01-07T18:39:17;2.33;;;1.60;;
10661;SDS011;5379;51.034;7.006;2024-01-07T18:41:45;4.83;;;1.23;;
10661;SDS011;5379;51.034;7.006;2024-01-07T18:44:12;1.10;;;1.10;;
10661;SDS011;5379;51.034;7.006;2024-01-07T18:46:38;1.50;;;1.40;;
10661;SDS011;5379;51.034;7.006;2024-01-07T18:49:07;1.60;;;1.50;;
10661;SDS011;5379;51.034;7.006;2024-01-07T18:51:37;1.40;;;1.30;;
10661;SDS011;5379;51.034;7.006;2024-01-07T18:54:05;1.87;;;1.77;;
10661;SDS011;5379;51.034;7.006;2024-01-07T18:56:32;1.27;;;1.23;;
10661;SDS011;5379;51.034;7.006;2024-01-07T18:58:59;1.63;;;1.60;;
10661;SDS011;5379;51.034;7.006;2024-01-07T19:01:26;1.40;;;1.40;;
10661;SDS011;5379;51.034;7.006;2024-01-07T19:03:52;1.80;;;1.70;;
10661;SDS011;5379;51.034;7.006;2024-01-07T19:06:19;1.83;;;1.73;;
10661;SDS011;5379;51.034;7.006;2024-01-07T19:08:48;1.47;;;1.37;;
10661;SDS011;5379;51.034;7.006;2024-01-07T19:11:15;1.40;;;1.40;;
10661;SDS011;5379;51.034;7.006;2024-01-07T19:13:42;2.43;;;2.23;;
10661;SDS011;5379;51.034;7.006;2024-01-07T19:16:09;1.93;;;1.83;;
10661;SDS011;5379;51.034;7.006;2024-01-07T19:18:37;2.03;;;1.93;;
10661;SDS011;5379;51.034;7.006;2024-01-07T19:21:04;1.73;;;1.63;;
10661;SDS011;5379;51.034;7.006;2024-01-07T19:23:31;1.70;;;1.60;;
10661;SDS011;5379;51.034;7.006;2024-01-07T19:26:02;3.03;;;1.60;;
10661;SDS011;5379;51.034;7.006;2024-01-07T19:28:28;2.00;;;1.90;;
10661;SDS011;5379;51.034;7.006;2024-01-07T19:30:55;1.67;;;1.57;;
10661;SDS011;5379;51.034;7.006;2024-01-07T19:33:23;2.33;;;2.13;;
10661;SDS011;5379;51.034;7.006;2024-01-07T19:35:50;2.40;;;2.20;;